createdAt,value
2022-11-06T00:04:12.128Z,10.41
2022-11-06T00:14:15.478Z,10.33
2022-11-06T00:24:19.943Z,10.26
2022-11-06T00:34:22.979Z,10.27
2022-11-06T00:44:27.501Z,10.29
2022-11-06T00:54:30.641Z,10.36
2022-11-06T01:04:35.109Z,10.36
2022-11-06T01:14:40.449Z,10.40
2022-11-06T01:24:45.109Z,10.25
2022-11-06T01:34:50.451Z,10.19
2022-11-06T01:45:30.589Z,9.93
2022-11-06T01:55:39.130Z,9.95
2022-11-06T02:05:43.760Z,9.93
2022-11-06T02:15:51.187Z,10.01
2022-11-06T02:26:08.700Z,10.12
2022-11-06T02:36:17.563Z,9.90
2022-11-06T02:46:26.499Z,9.70
2022-11-06T02:56:36.769Z,9.75
2022-11-06T03:06:44.904Z,9.97
2022-11-06T03:16:55.887Z,9.94
2022-11-06T03:27:02.149Z,9.85
2022-11-06T03:37:12.354Z,9.86
2022-11-06T03:47:22.384Z,9.85
2022-11-06T03:57:35.526Z,9.84
2022-11-06T04:07:42.981Z,9.83
2022-11-06T04:17:47.325Z,9.72
2022-11-06T04:28:04.385Z,9.79
2022-11-06T04:38:14.358Z,9.87
2022-11-06T04:48:18.979Z,9.76
2022-11-06T04:58:23.402Z,9.83
2022-11-06T05:08:26.351Z,9.84
2022-11-06T05:18:30.626Z,9.93
2022-11-06T05:28:33.823Z,9.94
2022-11-06T05:38:38.101Z,9.94
2022-11-06T05:48:41.183Z,9.96
2022-11-06T05:58:45.585Z,9.99
2022-11-06T06:08:48.573Z,10.06
2022-11-06T06:18:52.941Z,9.85
2022-11-06T06:28:55.956Z,9.78
2022-11-06T06:39:00.361Z,9.68
2022-11-06T06:49:03.602Z,9.67
2022-11-06T06:59:07.923Z,9.52
2022-11-06T07:09:10.887Z,9.57
2022-11-06T07:19:15.593Z,9.38
2022-11-06T07:29:18.563Z,9.54
2022-11-06T07:39:22.774Z,9.58
2022-11-06T07:49:25.784Z,10.26
2022-11-06T07:59:29.897Z,10.13
2022-11-06T08:09:33.009Z,10.19
2022-11-06T08:19:37.592Z,10.23
2022-11-06T08:29:41.718Z,10.25
2022-11-06T08:39:46.288Z,10.46
2022-11-06T08:49:49.299Z,10.48
2022-11-06T08:59:53.740Z,10.60
2022-11-06T09:09:56.754Z,10.70
2022-11-06T09:20:01.130Z,10.75
2022-11-06T09:30:04.410Z,10.91
2022-11-06T09:40:17.017Z,10.90
2022-11-06T09:50:25.915Z,11.24
2022-11-06T10:00:30.655Z,11.34
2022-11-06T10:10:42.570Z,11.25
2022-11-06T10:20:53.428Z,11.43
2022-11-06T10:31:04.509Z,11.24
2022-11-06T10:41:16.549Z,11.16
2022-11-06T10:51:36.761Z,11.30
2022-11-06T11:01:41.564Z,11.30
2022-11-06T11:11:50.746Z,11.29
2022-11-06T11:21:57.594Z,11.56
2022-11-06T11:32:03.866Z,11.70
2022-11-06T11:42:27.367Z,11.87
2022-11-06T11:52:30.748Z,12.28
2022-11-06T12:02:41.950Z,12.52
2022-11-06T12:12:51.195Z,12.89
2022-11-06T12:22:57.242Z,12.65
2022-11-06T12:33:11.791Z,12.61
2022-11-06T12:43:23.597Z,12.54
2022-11-06T12:53:37.387Z,12.57
2022-11-06T13:04:11.421Z,12.66
2022-11-06T13:14:21.994Z,12.63
2022-11-06T13:24:32.875Z,12.53
2022-11-06T13:34:39.542Z,12.54
2022-11-06T13:44:44.038Z,12.57
2022-11-06T13:55:02.104Z,12.44
2022-11-06T14:05:45.362Z,12.41
2022-11-06T14:15:49.339Z,12.30
2022-11-06T14:26:02.982Z,12.24
2022-11-06T14:36:27.325Z,12.10
2022-11-06T14:46:33.047Z,12.17
2022-11-06T14:56:39.419Z,12.11
2022-11-06T15:06:46.170Z,12.03
2022-11-06T15:16:52.113Z,11.90
2022-11-06T15:27:00.673Z,11.72
2022-11-06T15:37:11.739Z,11.84
2022-11-06T15:47:24.380Z,11.68
2022-11-06T15:57:30.081Z,11.61
2022-11-06T16:07:34.500Z,11.65
2022-11-06T16:17:37.685Z,11.38
2022-11-06T16:27:42.116Z,11.22
2022-11-06T16:37:45.532Z,10.94
2022-11-06T16:48:32.668Z,10.91
2022-11-06T16:58:49.938Z,10.99
2022-11-06T17:09:09.377Z,10.88
2022-11-06T17:19:14.469Z,11.04
2022-11-06T17:29:21.946Z,11.03
2022-11-06T17:39:26.946Z,11.01
2022-11-06T17:49:29.956Z,10.85
2022-11-06T17:59:35.153Z,10.93
2022-11-06T18:09:38.201Z,10.90
2022-11-06T18:19:42.351Z,10.96
2022-11-06T18:29:45.299Z,11.07
2022-11-06T18:39:49.747Z,11.20
2022-11-06T18:49:52.738Z,11.17
2022-11-06T18:59:57.011Z,11.16
2022-11-06T19:10:00.188Z,11.24
2022-11-06T19:20:06.730Z,11.28
2022-11-06T19:30:11.627Z,11.19
2022-11-06T19:40:16.134Z,11.28
2022-11-06T19:50:28.783Z,10.98
2022-11-06T20:00:44.766Z,11.13
2022-11-06T20:10:47.557Z,11.08
2022-11-06T20:20:52.328Z,10.99
2022-11-06T20:30:55.325Z,10.98
2022-11-06T20:40:59.796Z,11.17
2022-11-06T20:51:05.302Z,10.98
2022-11-06T21:01:11.771Z,11.05
2022-11-06T21:11:16.895Z,11.12
2022-11-06T21:21:24.598Z,11.18
2022-11-06T21:31:29.005Z,11.10
2022-11-06T21:41:34.443Z,11.13
2022-11-06T21:51:37.689Z,11.08
2022-11-06T22:01:43.858Z,11.27
2022-11-06T22:11:46.936Z,11.38
2022-11-06T22:21:51.055Z,11.30
2022-11-06T22:31:54.153Z,11.43
2022-11-06T22:41:58.500Z,11.45
2022-11-06T22:52:01.840Z,11.38
2022-11-06T23:02:06.434Z,11.38
2022-11-06T23:12:09.667Z,11.35
2022-11-06T23:22:31.039Z,11.33
2022-11-06T23:32:36.300Z,11.44
2022-11-06T23:42:40.611Z,11.44
2022-11-06T23:52:43.630Z,11.45
